Time;durP1;ratioP1;P1;durP2;ratioP2;P2;SDS_P1;SDS_P2;PMS_P1;PMS_P2;Temp;Humidity;BMP_temperature;BMP_pressure;BME280_temperature;BME280_humidity;BME280_pressure;Samples;Min_cycle;Max_cycle;Signal;HPM_P1;HPM_P2
2024/04/17 00:02:22;;;;;;;3.20;0.60;;;;;;;3.45;100.00;100019.59;5409957;26;20553;-69
2024/04/17 00:04:50;;;;;;;1.80;0.30;;;;;;;3.56;100.00;100010.50;5409876;26;20471;-69
2024/04/17 00:07:16;;;;;;;8.30;0.97;;;;;;;3.58;100.00;100011.03;5409780;26;20989;-70
2024/04/17 00:09:44;;;;;;;2.63;0.53;;;;;;;3.56;100.00;99999.00;5409699;26;20497;-69
2024/04/17 00:12:10;;;;;;;1.80;0.30;;;;;;;3.50;100.00;100020.41;5409686;26;20256;-70
2024/04/17 00:14:38;;;;;;;1.80;0.40;;;;;;;3.48;100.00;99997.66;5409746;26;20804;-70
2024/04/17 00:17:04;;;;;;;1.80;0.30;;;;;;;3.45;100.00;100016.91;5409368;26;20586;-69
2024/04/17 00:19:34;;;;;;;1.80;0.30;;;;;;;3.43;100.00;100011.84;5409639;26;20527;-69
2024/04/17 00:22:00;;;;;;;1.80;0.30;;;;;;;3.43;100.00;100011.84;5408451;26;20629;-69
2024/04/17 00:24:28;;;;;;;1.90;0.40;;;;;;;3.46;100.00;100007.84;5409538;26;20455;-69
2024/04/17 00:26:54;;;;;;;1.77;0.30;;;;;;;3.54;100.00;100012.63;5409478;26;20264;-69
2024/04/17 00:29:22;;;;;;;1.80;0.40;;;;;;;3.61;100.00;99999.00;5408843;26;20975;-69
2024/04/17 00:31:48;;;;;;;2.97;0.93;;;;;;;3.63;100.00;99999.50;5409469;26;20221;-68
2024/04/17 00:34:16;;;;;;;2.20;1.07;;;;;;;3.64;100.00;100006.50;5409446;26;20999;-68
2024/04/17 00:36:44;;;;;;;1.80;0.40;;;;;;;3.67;100.00;100004.06;5409336;26;20327;-68
2024/04/17 00:39:13;;;;;;;1.90;0.43;;;;;;;3.72;100.00;100008.63;5409154;26;20550;-68
2024/04/17 00:41:38;;;;;;;1.80;0.40;;;;;;;3.72;100.00;100006.75;5409092;26;21073;-68
2024/04/17 00:44:07;;;;;;;1.90;0.57;;;;;;;3.75;100.00;100014.22;5409193;26;20459;-68
2024/04/17 00:46:36;;;;;;;1.70;0.30;;;;;;;3.77;100.00;100013.97;5409462;26;20276;-68
2024/04/17 00:49:05;;;;;;;2.70;1.47;;;;;;;3.76;100.00;100015.84;5409236;26;20580;-68
2024/04/17 00:51:31;;;;;;;1.80;0.40;;;;;;;3.70;100.00;100019.59;5409001;26;20459;-68
2024/04/17 00:54:03;;;;;;;1.80;0.50;;;;;;;3.76;100.00;100010.50;5408990;26;20515;-68
2024/04/17 00:56:29;;;;;;;2.67;0.70;;;;;;;3.85;100.00;100015.28;5409191;26;20463;-68
2024/04/17 00:58:58;;;;;;;1.80;0.67;;;;;;;3.85;100.00;100016.13;5408807;26;20464;-68
2024/04/17 01:01:24;;;;;;;1.80;0.30;;;;;;;3.94;100.00;100025.22;5408851;26;20514;-68
2024/04/17 01:03:52;;;;;;;4.33;0.47;;;;;;;3.98;100.00;100017.41;5408832;26;20479;-69
2024/04/17 01:06:18;;;;;;;1.77;0.30;;;;;;;3.97;100.00;100019.28;5408994;26;20221;-69
2024/04/17 01:08:46;;;;;;;2.00;0.47;;;;;;;4.05;100.00;100018.75;5408853;26;20455;-69
2024/04/17 01:11:15;;;;;;;2.00;0.70;;;;;;;4.15;100.00;100019.78;5408463;26;20467;-68
2024/04/17 01:13:43;;;;;;;1.80;0.30;;;;;;;4.17;100.00;100014.97;5408724;26;20467;-68
2024/04/17 01:16:08;;;;;;;1.80;0.40;;;;;;;4.21;100.00;100006.13;5408506;26;20455;-69
2024/04/17 01:18:39;;;;;;;1.73;0.30;;;;;;;4.27;100.00;100009.56;5409087;26;20502;-68
2024/04/17 01:21:04;;;;;;;2.87;1.00;;;;;;;4.35;100.00;100016.25;5408751;26;20752;-68
2024/04/17 01:23:33;;;;;;;1.90;0.60;;;;;;;4.41;100.00;100017.84;5408642;26;20982;-68
2024/04/17 01:26:01;;;;;;;1.90;0.40;;;;;;;4.48;100.00;100013.78;5408671;26;20222;-68
2024/04/17 01:28:29;;;;;;;1.90;0.50;;;;;;;4.46;100.00;100010.56;5408782;26;20550;-68
2024/04/17 01:30:55;;;;;;;2.00;0.53;;;;;;;4.37;100.00;100008.72;5408487;26;20452;-68
2024/04/17 01:33:23;;;;;;;1.90;0.50;;;;;;;4.30;100.00;100015.19;5408299;26;20527;-68
2024/04/17 01:35:49;;;;;;;2.00;0.63;;;;;;;4.27;100.00;100017.63;5408529;26;20315;-68
2024/04/17 01:38:17;;;;;;;1.83;0.40;;;;;;;4.23;100.00;100022.72;5408383;26;20463;-68
2024/04/17 01:40:43;;;;;;;2.00;0.57;;;;;;;4.21;100.00;100024.88;5408418;26;20229;-67
2024/04/17 01:43:14;;;;;;;1.80;0.30;;;;;;;4.23;100.00;100030.75;5408330;26;20468;-68
2024/04/17 01:45:43;;;;;;;1.90;0.50;;;;;;;4.14;100.00;100037.75;5408451;26;20226;-67
2024/04/17 01:48:12;;;;;;;1.80;0.40;;;;;;;3.95;100.00;100037.53;5407896;26;21047;-68
2024/04/17 01:50:37;;;;;;;2.10;0.50;;;;;;;3.80;100.00;100035.66;5407911;26;20527;-69
2024/04/17 01:53:06;;;;;;;1.87;0.37;;;;;;;3.72;100.00;100048.81;5408446;26;20491;-69
2024/04/17 01:55:32;;;;;;;1.80;0.30;;;;;;;3.79;100.00;100047.44;5407843;26;20574;-70
2024/04/17 01:58:00;;;;;;;1.80;0.30;;;;;;;3.74;100.00;100044.78;5407979;26;20527;-70
2024/04/17 02:00:28;;;;;;;1.83;0.40;;;;;;;3.72;100.00;100041.56;5407995;26;20222;-70
2024/04/17 02:02:56;;;;;;;2.23;0.77;;;;;;;3.73;100.00;100042.38;5408117;26;20475;-70
2024/04/17 02:05:22;;;;;;;1.90;0.60;;;;;;;3.75;100.00;100042.88;5408138;26;20451;-70
2024/04/17 02:07:51;;;;;;;1.90;0.50;;;;;;;3.82;100.00;100048.78;5407625;26;21048;-70
2024/04/17 02:10:17;;;;;;;2.10;0.67;;;;;;;3.89;100.00;100051.19;5407992;26;20597;-69
2024/04/17 02:12:45;;;;;;;2.23;0.80;;;;;;;3.92;100.00;100045.28;5408032;26;20515;-70
2024/04/17 02:15:11;;;;;;;1.87;0.40;;;;;;;3.89;100.00;100051.19;5408016;26;20217;-70
2024/04/17 02:17:42;;;;;;;2.50;0.60;;;;;;;3.93;100.00;100047.69;5407771;26;20574;-69
2024/04/17 02:20:08;;;;;;;2.47;0.83;;;;;;;3.91;100.00;100044.50;5407829;26;20237;-69
2024/04/17 02:22:36;;;;;;;1.90;0.60;;;;;;;3.90;100.00;100050.94;5407906;26;21029;-69
2024/04/17 02:25:03;;;;;;;2.13;0.97;;;;;;;3.94;100.00;100043.97;5407824;26;20467;-70
2024/04/17 02:27:31;;;;;;;1.80;0.37;;;;;;;3.97;100.00;100045.28;5407628;26;20569;-70
2024/04/17 02:29:57;;;;;;;1.93;0.70;;;;;;;3.93;100.00;100049.56;5407870;26;20463;-70
2024/04/17 02:32:25;;;;;;;1.80;0.30;;;;;;;3.97;100.00;100053.31;5407708;26;20507;-70
2024/04/17 02:34:53;;;;;;;1.90;0.50;;;;;;;4.11;100.00;100061.59;5407738;26;20218;-69
2024/04/17 02:37:22;;;;;;;1.80;0.30;;;;;;;4.16;100.00;100056.22;5407562;26;20500;-70
2024/04/17 02:39:47;;;;;;;1.90;0.53;;;;;;;4.22;100.00;100050.59;5407166;26;20467;-70
2024/04/17 02:42:16;;;;;;;1.83;0.40;;;;;;;4.19;100.00;100050.34;5407479;26;20456;-69
2024/04/17 02:44:41;;;;;;;1.80;0.30;;;;;;;4.18;100.00;100054.91;5439412;21;20902;-68
2024/04/17 02:47:10;;;;;;;1.90;0.50;;;;;;;4.17;100.00;100055.19;5525590;26;20511;-68
2024/04/17 02:49:35;;;;;;;2.00;0.70;;;;;;;4.15;100.00;100050.06;5526689;25;20611;-68
2024/04/17 02:52:06;;;;;;;1.80;0.40;;;;;;;4.16;100.00;100058.91;5525973;26;20459;-68
2024/04/17 02:54:32;;;;;;;1.80;0.30;;;;;;;4.12;100.00;100064.03;5490697;26;20230;-67
2024/04/17 02:57:00;;;;;;;2.60;0.77;;;;;;;4.10;100.00;100054.66;5490739;26;20504;-68
2024/04/17 02:59:26;;;;;;;2.27;0.70;;;;;;;4.08;100.00;100064.84;5490255;26;20215;-68
2024/04/17 03:01:54;;;;;;;1.80;0.40;;;;;;;4.03;100.00;100069.13;5489777;26;20597;-67
2024/04/17 03:04:20;;;;;;;1.80;0.40;;;;;;;3.90;100.00;100074.25;5489293;26;20281;-67
2024/04/17 03:06:48;;;;;;;2.00;0.63;;;;;;;3.78;100.00;100077.97;5489555;26;20452;-67
2024/04/17 03:09:16;;;;;;;1.80;0.40;;;;;;;3.68;100.00;100078.00;5489608;26;20223;-67
2024/04/17 03:11:45;;;;;;;2.40;0.63;;;;;;;3.65;100.00;100080.41;5489597;26;20886;-67
2024/04/17 03:14:10;;;;;;;1.80;0.40;;;;;;;3.68;100.00;100078.00;5489113;26;20468;-67
2024/04/17 03:16:38;;;;;;;3.40;0.87;;;;;;;3.70;100.00;100077.72;5489355;26;20468;-67
2024/04/17 03:19:04;;;;;;;1.90;0.40;;;;;;;3.72;100.00;100075.59;5489453;26;20211;-67
2024/04/17 03:21:32;;;;;;;1.90;0.40;;;;;;;3.75;100.00;100075.03;5489320;26;20493;-67
2024/04/17 03:23:58;;;;;;;2.10;0.50;;;;;;;3.72;100.00;100086.31;5489482;26;20621;-67
2024/04/17 03:26:29;;;;;;;1.77;0.37;;;;;;;3.70;100.00;100080.41;5488735;26;20456;-67
2024/04/17 03:28:54;;;;;;;1.80;0.30;;;;;;;3.59;100.00;100082.28;5489096;26;20250;-67
2024/04/17 03:31:23;;;;;;;2.43;0.93;;;;;;;3.50;100.00;100082.00;5488955;26;20444;-67
2024/04/17 03:33:48;;;;;;;1.80;0.40;;;;;;;3.51;100.00;100077.44;5488931;26;20231;-67
2024/04/17 03:36:17;;;;;;;1.90;0.57;;;;;;;3.56;100.00;100074.78;5488764;26;20515;-67
2024/04/17 03:38:45;;;;;;;1.80;0.30;;;;;;;3.61;100.00;100082.00;5488469;26;20275;-67
2024/04/17 03:41:13;;;;;;;2.00;0.60;;;;;;;3.58;100.00;100077.16;5489044;26;20464;-67
2024/04/17 03:43:44;;;;;;;2.10;0.63;;;;;;;3.62;100.00;100084.41;5488997;26;20597;-67
2024/04/17 03:46:12;;;;;;;1.80;0.40;;;;;;;3.67;100.00;100089.75;5517045;26;20511;-67
2024/04/17 03:48:41;;;;;;;1.90;0.53;;;;;;;3.75;100.00;100091.91;5525391;26;20523;-66
2024/04/17 03:51:06;;;;;;;1.80;0.47;;;;;;;3.74;100.00;100098.34;5525037;26;20474;-66
2024/04/17 03:53:34;;;;;;;1.80;0.30;;;;;;;3.73;100.00;100096.75;5525419;26;20522;-67
2024/04/17 03:56:00;;;;;;;1.80;0.50;;;;;;;3.73;100.00;100101.28;5525403;26;20222;-67
2024/04/17 03:58:28;;;;;;;2.20;1.07;;;;;;;3.60;100.00;100107.97;5528068;26;20499;-67
2024/04/17 04:00:57;;;;;;;1.80;0.30;;;;;;;3.59;100.00;100111.72;5528556;26;20722;-67
2024/04/17 04:03:25;;;;;;;2.00;0.50;;;;;;;3.63;100.00;100110.13;5529227;26;20519;-67
2024/04/17 04:05:51;;;;;;;2.10;0.93;;;;;;;3.70;100.00;100107.97;5529183;26;20450;-67
2024/04/17 04:08:19;;;;;;;1.90;0.50;;;;;;;3.75;100.00;100109.84;5529208;26;20507;-67
2024/04/17 04:10:44;;;;;;;1.90;0.40;;;;;;;3.74;100.00;100109.06;5528762;26;20264;-67
2024/04/17 04:13:13;;;;;;;2.47;0.70;;;;;;;3.78;100.00;100115.47;5529341;26;20458;-67
2024/04/17 04:15:39;;;;;;;2.33;0.73;;;;;;;3.78;100.00;100118.16;5529153;26;20218;-67
2024/04/17 04:18:10;;;;;;;2.83;0.80;;;;;;;3.88;100.00;100120.03;5529026;26;20495;-67
2024/04/17 04:20:35;;;;;;;1.80;0.30;;;;;;;3.86;100.00;100124.06;5528838;26;20507;-67
2024/04/17 04:23:03;;;;;;;1.80;0.30;;;;;;;3.88;100.00;100127.28;5529125;26;20467;-67
2024/04/17 04:25:29;;;;;;;2.60;0.80;;;;;;;3.96;100.00;100132.09;5529082;26;20215;-67
2024/04/17 04:27:57;;;;;;;2.10;0.57;;;;;;;3.98;100.00;100129.94;5528935;26;20493;-67
2024/04/17 04:30:23;;;;;;;1.97;0.40;;;;;;;3.95;100.00;100135.84;5529048;26;20218;-67
2024/04/17 04:32:51;;;;;;;2.37;1.23;;;;;;;4.07;100.00;100139.03;5528493;26;20526;-67
2024/04/17 04:35:20;;;;;;;1.80;0.30;;;;;;;4.20;100.00;100143.06;5528769;26;20761;-67
2024/04/17 04:37:48;;;;;;;1.80;0.30;;;;;;;4.17;100.00;100138.25;5528897;26;20511;-67
2024/04/17 04:40:13;;;;;;;1.80;0.40;;;;;;;4.22;100.00;100138.25;5528860;26;20459;-67
2024/04/17 04:42:42;;;;;;;2.10;0.87;;;;;;;4.32;100.00;100134.75;5527839;26;20506;-67
2024/04/17 04:45:07;;;;;;;1.97;0.53;;;;;;;4.33;100.00;100147.06;5528058;26;20242;-70
2024/04/17 04:47:36;;;;;;;2.07;0.60;;;;;;;4.49;100.00;100145.97;5528852;26;20564;-68
2024/04/17 04:50:01;;;;;;;1.80;0.40;;;;;;;4.59;100.00;100145.94;5528851;26;20268;-67
2024/04/17 04:52:32;;;;;;;2.97;0.87;;;;;;;4.61;100.00;100156.44;5528515;26;20474;-67
2024/04/17 04:54:58;;;;;;;1.80;0.30;;;;;;;4.66;100.00;100156.41;5527996;26;20226;-67
2024/04/17 04:57:26;;;;;;;2.20;0.60;;;;;;;4.79;100.00;100156.63;5528694;26;20455;-67
2024/04/17 04:59:52;;;;;;;1.80;0.30;;;;;;;4.83;100.00;100156.09;5528489;26;20261;-67
2024/04/17 05:02:20;;;;;;;1.80;0.30;;;;;;;4.79;100.00;100167.38;5528421;26;20459;-67
2024/04/17 05:04:45;;;;;;;2.10;0.63;;;;;;;4.79;100.00;100170.06;5528356;26;20253;-67
2024/04/17 05:07:14;;;;;;;2.40;0.77;;;;;;;4.94;100.00;100171.88;5528278;26;20458;-67
2024/04/17 05:09:42;;;;;;;1.90;0.50;;;;;;;5.04;100.00;100176.41;5527846;26;20706;-68
2024/04/17 05:12:10;;;;;;;1.90;0.50;;;;;;;5.05;100.00;100178.03;5527781;26;20463;-68
2024/04/17 05:14:36;;;;;;;2.50;0.40;;;;;;;5.10;100.00;100179.88;5528422;26;20447;-68
2024/04/17 05:17:04;;;;;;;2.07;0.70;;;;;;;5.16;100.00;100176.91;5528381;26;20951;-68
2024/04/17 05:19:30;;;;;;;4.73;1.83;;;;;;;5.13;100.00;100187.38;5528250;26;20218;-68
2024/04/17 05:21:58;;;;;;;2.33;0.67;;;;;;;5.09;100.00;100191.69;5528092;26;21054;-68
2024/04/17 05:24:24;;;;;;;1.90;0.40;;;;;;;5.21;100.00;100192.19;5528374;26;20280;-68
2024/04/17 05:26:55;;;;;;;2.13;0.57;;;;;;;5.21;100.00;100187.63;5528187;26;20443;-68
2024/04/17 05:29:21;;;;;;;2.47;0.57;;;;;;;5.22;100.00;100191.09;5527918;26;20219;-67
2024/04/17 05:31:49;;;;;;;11.93;1.60;;;;;;;5.14;100.00;100195.19;5527877;26;20515;-67
2024/04/17 05:34:15;;;;;;;2.30;0.50;;;;;;;5.19;100.00;100194.34;5526607;26;20234;-67
2024/04/17 05:36:43;;;;;;;2.00;0.50;;;;;;;5.29;100.00;100192.41;5527905;26;20455;-67
2024/04/17 05:39:09;;;;;;;2.00;0.60;;;;;;;5.27;100.00;100189.22;5528125;26;20222;-67
2024/04/17 05:41:37;;;;;;;2.03;0.47;;;;;;;5.43;100.00;100191.81;5525194;26;20515;-69
2024/04/17 05:44:05;;;;;;;2.10;0.53;;;;;;;5.55;100.00;100189.59;5527855;26;20294;-67
2024/04/17 05:46:34;;;;;;;5.23;0.67;;;;;;;5.63;100.00;100188.22;5516790;26;20470;-69
2024/04/17 05:48:59;;;;;;;2.13;0.77;;;;;;;5.77;100.00;100192.69;5524584;26;20454;-68
2024/04/17 05:51:27;;;;;;;2.97;0.80;;;;;;;5.92;100.00;100193.69;5527684;26;20451;-69
2024/04/17 05:53:54;;;;;;;4.27;1.33;;;;;;;6.09;100.00;100191.44;5527483;26;20230;-69
2024/04/17 05:56:22;;;;;;;1.90;0.37;;;;;;;6.24;100.00;100196.69;5527552;26;20443;-68
2024/04/17 05:58:48;;;;;;;2.00;0.50;;;;;;;6.43;100.00;100204.06;5527222;26;20459;-68
2024/04/17 06:01:19;;;;;;;2.00;0.50;;;;;;;6.50;100.00;100208.03;5527197;26;20863;-68
2024/04/17 06:03:44;;;;;;;2.20;0.70;;;;;;;6.63;100.00;100200.38;5527600;26;20238;-67
2024/04/17 06:06:13;;;;;;;2.93;0.60;;;;;;;6.74;100.00;100216.16;5527496;26;20451;-69
2024/04/17 06:08:38;;;;;;;2.63;1.07;;;;;;;6.79;100.00;100210.72;5527497;26;20694;-68
2024/04/17 06:11:07;;;;;;;2.07;0.57;;;;;;;6.85;100.00;100213.34;5526921;26;20518;-66
2024/04/17 06:13:33;;;;;;;2.33;0.93;;;;;;;6.89;100.00;100214.38;5527193;26;20615;-70
2024/04/17 06:16:01;;;;;;;2.00;0.40;;;;;;;6.96;100.00;100206.78;5526752;26;20455;-69
2024/04/17 06:18:29;;;;;;;3.37;0.77;;;;;;;6.90;99.36;100214.09;5527208;26;20682;-68
2024/04/17 06:20:57;;;;;;;2.17;0.70;;;;;;;6.81;99.04;100215.81;5525685;26;20959;-68
2024/04/17 06:23:23;;;;;;;2.00;0.47;;;;;;;6.69;99.43;100213.50;5526844;26;20462;-68
2024/04/17 06:25:51;;;;;;;3.83;0.80;;;;;;;6.62;100.00;100213.03;5527137;26;20447;-68
2024/04/17 06:28:17;;;;;;;2.00;0.40;;;;;;;6.68;100.00;100211.09;5527103;26;20702;-68
2024/04/17 06:30:45;;;;;;;2.17;0.60;;;;;;;6.64;100.00;100221.63;5527007;26;20510;-69
2024/04/17 06:33:11;;;;;;;2.00;0.40;;;;;;;6.64;100.00;100216.25;5526720;26;20234;-68
2024/04/17 06:35:42;;;;;;;2.87;0.60;;;;;;;6.52;98.05;100215.81;5527652;26;20515;-68
2024/04/17 06:38:08;;;;;;;2.10;0.57;;;;;;;6.31;98.21;100216.00;5526985;26;20256;-68
2024/04/17 06:40:36;;;;;;;2.00;0.40;;;;;;;6.19;98.67;100217.44;5526908;26;20443;-68
2024/04/17 06:43:02;;;;;;;3.13;0.83;;;;;;;6.02;100.00;100218.66;5526497;26;20474;-68
2024/04/17 06:45:30;;;;;;;2.00;0.40;;;;;;;5.97;100.00;100223.22;5524613;26;20518;-68
2024/04/17 06:47:56;;;;;;;1.93;0.40;;;;;;;6.01;100.00;100224.28;5526730;26;20264;-69
2024/04/17 06:50:24;;;;;;;2.30;0.50;;;;;;;6.20;100.00;100222.56;5526608;26;21091;-68
2024/04/17 06:52:53;;;;;;;2.20;0.60;;;;;;;6.25;100.00;100230.56;5526569;26;20650;-68
2024/04/17 06:55:21;;;;;;;2.10;0.53;;;;;;;6.36;100.00;100233.16;5526111;26;20865;-68
2024/04/17 06:57:47;;;;;;;2.00;0.40;;;;;;;6.45;98.97;100229.59;5526024;26;20458;-70
2024/04/17 07:00:15;;;;;;;2.00;0.50;;;;;;;6.48;98.06;100223.66;5526199;26;20523;-68
2024/04/17 07:02:41;;;;;;;2.50;0.73;;;;;;;6.52;97.78;100227.38;5525949;26;20330;-69
2024/04/17 07:05:09;;;;;;;2.00;0.40;;;;;;;6.57;97.34;100226.53;5526509;26;20459;-69
2024/04/17 07:07:35;;;;;;;2.00;0.40;;;;;;;6.67;98.28;100225.63;5526711;26;20218;-69
2024/04/17 07:10:07;;;;;;;2.10;0.60;;;;;;;6.75;99.48;100223.13;5526369;26;20455;-69
2024/04/17 07:12:32;;;;;;;2.50;1.03;;;;;;;6.82;98.58;100220.13;5526250;26;20230;-68
2024/04/17 07:15:01;;;;;;;3.57;0.63;;;;;;;6.92;98.16;100222.69;5525757;26;20507;-68
2024/04/17 07:17:26;;;;;;;2.37;0.53;;;;;;;7.01;97.12;100225.56;5526287;26;20702;-68
2024/04/17 07:19:54;;;;;;;2.00;0.30;;;;;;;7.12;95.75;100227.03;5526061;26;20511;-68
2024/04/17 07:22:20;;;;;;;2.20;0.70;;;;;;;7.16;91.79;100230.78;5525938;26;20682;-68
2024/04/17 07:24:48;;;;;;;2.00;0.40;;;;;;;7.13;91.77;100228.66;5525770;26;20467;-68
2024/04/17 07:27:17;;;;;;;2.37;0.70;;;;;;;7.24;91.85;100232.84;5526243;26;20242;-68
2024/04/17 07:29:45;;;;;;;2.47;0.73;;;;;;;7.32;91.44;100236.78;5525428;26;20459;-69
2024/04/17 07:32:11;;;;;;;2.10;0.43;;;;;;;7.39;91.44;100231.03;5527929;26;20451;-68
2024/04/17 07:34:39;;;;;;;2.20;0.60;;;;;;;7.51;90.50;100239.53;5529479;26;20506;-68
2024/04/17 07:37:05;;;;;;;2.40;0.57;;;;;;;7.72;90.49;100231.97;5529611;26;20226;-68
2024/04/17 07:39:34;;;;;;;2.07;0.40;;;;;;;7.96;89.74;100240.00;5529516;26;20494;-68
2024/04/17 07:41:59;;;;;;;2.97;0.60;;;;;;;8.13;86.81;100248.38;5529591;26;20459;-68
2024/04/17 07:44:31;;;;;;;2.13;0.50;;;;;;;8.15;83.86;100243.50;5529929;26;20576;-68
2024/04/17 07:46:57;;;;;;;2.40;0.60;;;;;;;8.19;83.97;100241.81;5528922;26;20615;-67
2024/04/17 07:49:25;;;;;;;2.63;0.73;;;;;;;8.31;83.58;100235.94;5529431;26;20931;-69
2024/04/17 07:51:51;;;;;;;2.60;0.60;;;;;;;8.43;83.36;100240.94;5529375;26;20257;-69
2024/04/17 07:54:19;;;;;;;2.10;0.40;;;;;;;8.53;82.28;100238.84;5529303;26;20463;-70
2024/04/17 07:56:44;;;;;;;2.10;0.40;;;;;;;8.65;82.24;100246.50;5529406;26;20221;-70
2024/04/17 07:59:13;;;;;;;2.33;0.73;;;;;;;8.74;80.27;100252.81;5528984;26;20463;-69
2024/04/17 08:01:41;;;;;;;2.20;0.60;;;;;;;8.64;80.05;100246.81;5529343;26;20256;-69
2024/04/17 08:04:09;;;;;;;2.20;0.50;;;;;;;8.69;80.80;100247.50;5529772;26;20466;-70
2024/04/17 08:06:35;;;;;;;2.10;0.40;;;;;;;8.60;81.64;100249.28;5529525;26;20450;-69
2024/04/17 08:09:03;;;;;;;2.50;0.73;;;;;;;8.51;81.75;100245.66;5529038;26;20458;-69
2024/04/17 08:11:34;;;;;;;2.27;0.60;;;;;;;8.44;82.72;100250.63;5529271;26;20262;-69
2024/04/17 08:14:03;;;;;;;2.50;0.50;;;;;;;8.48;83.70;100246.25;5529274;26;20647;-69
2024/04/17 08:16:29;;;;;;;2.10;0.40;;;;;;;8.51;83.68;100237.56;5529197;26;20457;-69
2024/04/17 08:18:59;;;;;;;2.20;0.43;;;;;;;8.54;84.19;100237.78;5528679;26;20986;-69
2024/04/17 08:21:25;;;;;;;3.70;0.90;;;;;;;8.66;85.88;100239.19;5529207;26;20226;-69
2024/04/17 08:23:53;;;;;;;2.30;0.57;;;;;;;8.73;84.61;100245.81;5528825;26;20571;-69
2024/04/17 08:26:19;;;;;;;2.20;0.70;;;;;;;8.79;82.29;100247.31;5528700;26;20710;-69
2024/04/17 08:28:47;;;;;;;2.50;0.50;;;;;;;8.73;80.60;100247.72;5528825;26;20497;-69
2024/04/17 08:31:13;;;;;;;2.00;0.40;;;;;;;8.77;82.41;100249.53;5528800;26;20265;-69
2024/04/17 08:33:41;;;;;;;2.17;0.43;;;;;;;8.91;81.32;100249.56;5528719;26;20818;-69
2024/04/17 08:36:09;;;;;;;2.47;0.50;;;;;;;9.03;79.36;100249.03;5528377;26;20229;-69
2024/04/17 08:38:39;;;;;;;2.30;0.60;;;;;;;9.04;77.29;100245.25;5528862;26;20507;-69
2024/04/17 08:41:06;;;;;;;2.50;0.80;;;;;;;8.94;79.14;100248.13;5528575;26;20986;-69
2024/04/17 08:43:38;;;;;;;2.60;0.90;;;;;;;9.00;77.84;100252.38;5527538;26;20471;-69
2024/04/17 08:46:05;;;;;;;2.60;0.77;;;;;;;9.10;77.27;100252.16;5471546;20;20562;-64
2024/04/17 08:48:34;;;;;;;2.30;0.70;;;;;;;9.13;73.81;100248.88;5440933;26;20517;-64
2024/04/17 08:51:01;;;;;;;3.53;0.63;;;;;;;9.26;74.70;100260.78;5444846;26;20518;-64
2024/04/17 08:53:34;;;;;;;2.40;0.67;;;;;;;9.39;74.00;100260.00;5444855;26;20462;-64
2024/04/17 08:55:59;;;;;;;2.20;0.50;;;;;;;9.57;75.22;100250.16;5442173;26;20450;-64
2024/04/17 08:58:28;;;;;;;2.70;0.80;;;;;;;9.72;73.66;100251.75;5411944;26;21037;-64
2024/04/17 09:00:55;;;;;;;2.10;0.40;;;;;;;9.79;74.79;100252.13;5444797;26;20316;-64
2024/04/17 09:03:26;;;;;;;4.10;0.63;;;;;;;9.82;73.52;100249.59;5444575;26;20522;-64
2024/04/17 09:05:53;;;;;;;2.50;0.70;;;;;;;9.97;72.56;100258.50;5444784;26;20884;-64
2024/04/17 09:08:21;;;;;;;2.50;0.50;;;;;;;9.97;71.53;100251.19;5435571;26;20463;-64
2024/04/17 09:10:50;;;;;;;2.20;0.50;;;;;;;9.81;71.10;100248.00;5408839;26;20455;-64
2024/04/17 09:13:19;;;;;;;3.23;0.53;;;;;;;9.68;71.71;100243.44;5408901;26;20519;-64
2024/04/17 09:15:45;;;;;;;2.43;0.50;;;;;;;9.53;72.67;100249.97;5408945;26;20503;-64
2024/04/17 09:18:13;;;;;;;2.10;0.40;;;;;;;9.58;74.93;100244.44;5410921;26;21006;-63
2024/04/17 09:20:41;;;;;;;2.80;1.00;;;;;;;9.83;74.92;100240.41;5438594;26;20236;-65
2024/04/17 09:23:13;;;;;;;4.67;1.00;;;;;;;10.01;73.44;100238.66;5444402;26;20470;-64
2024/04/17 09:25:39;;;;;;;2.30;0.63;;;;;;;10.13;70.01;100238.09;5444597;26;20454;-64
2024/04/17 09:28:12;;;;;;;2.73;0.87;;;;;;;10.10;68.43;100233.31;5444050;26;21009;-64
2024/04/17 09:30:40;;;;;;;2.40;0.60;;;;;;;10.08;68.84;100238.22;5424356;26;20230;-64
2024/04/17 09:33:10;;;;;;;2.40;0.70;;;;;;;10.07;68.20;100236.63;5408555;26;20519;-64
2024/04/17 09:35:36;;;;;;;2.30;0.40;;;;;;;10.05;67.39;100239.66;5408672;26;20513;-64
2024/04/17 09:38:05;;;;;;;3.60;0.80;;;;;;;10.15;63.48;100244.00;5408529;26;20444;-64
2024/04/17 09:40:31;;;;;;;2.97;1.13;;;;;;;10.29;62.99;100235.88;5415996;26;20584;-64
2024/04/17 09:42:59;;;;;;;3.33;0.50;;;;;;;10.40;63.22;100241.81;5444265;26;20517;-64
2024/04/17 09:45:32;;;;;;;2.20;0.50;;;;;;;10.50;62.71;100231.56;5444250;26;20466;-64
2024/04/17 09:48:00;;;;;;;3.53;0.70;;;;;;;10.63;56.46;100242.63;5444254;26;20500;-64
2024/04/17 09:50:30;;;;;;;2.63;0.60;;;;;;;10.68;56.62;100234.38;5441521;26;20454;-64
2024/04/17 09:53:02;;;;;;;3.27;0.50;;;;;;;10.72;57.38;100230.72;5418297;26;20537;-64
2024/04/17 09:55:30;;;;;;;2.80;1.03;;;;;;;10.74;59.02;100241.25;5444188;26;20458;-64
2024/04/17 09:57:59;;;;;;;3.20;0.53;;;;;;;10.67;56.63;100241.69;5443994;26;20534;-64
2024/04/17 10:00:29;;;;;;;2.20;0.50;;;;;;;10.46;52.34;100241.41;5443320;26;20466;-64
2024/04/17 10:02:59;;;;;;;3.07;0.70;;;;;;;10.36;54.22;100238.94;5443361;26;20534;-65
2024/04/17 10:05:27;;;;;;;2.33;0.67;;;;;;;10.44;55.82;100240.09;5443585;26;20518;-64
2024/04/17 10:07:56;;;;;;;2.93;0.60;;;;;;;10.42;56.19;100237.72;5444063;26;20833;-64
2024/04/17 10:10:21;;;;;;;2.60;0.70;;;;;;;10.53;58.56;100232.81;5443875;26;20457;-64
2024/04/17 10:12:52;;;;;;;2.30;0.57;;;;;;;10.66;59.27;100234.66;5440365;26;20896;-64
2024/04/17 10:15:18;;;;;;;3.80;0.70;;;;;;;10.83;60.58;100233.97;5443924;26;20232;-64
2024/04/17 10:17:49;;;;;;;2.30;0.50;;;;;;;10.93;54.68;100236.41;5443880;26;20502;-64
2024/04/17 10:20:28;;;;;;;2.20;0.47;;;;;;;11.08;58.48;100232.50;5443863;26;20458;-64
2024/04/17 10:23:05;;;;;;;2.30;0.60;;;;;;;10.84;56.42;100232.84;5440770;26;20573;-64
2024/04/17 10:25:31;;;;;;;2.60;0.80;;;;;;;10.72;58.25;100229.94;5438725;26;20562;-64
2024/04/17 10:28:04;;;;;;;2.50;0.63;;;;;;;10.65;59.33;100232.28;5407882;26;20540;-64
2024/04/17 10:30:34;;;;;;;2.37;0.50;;;;;;;10.46;56.89;100227.06;5407881;26;21137;-64
2024/04/17 10:33:05;;;;;;;2.30;0.60;;;;;;;10.54;58.49;100221.72;5409838;26;20479;-64
2024/04/17 10:35:32;;;;;;;2.10;0.40;;;;;;;10.84;57.29;100217.38;5408090;26;20476;-64
2024/04/17 10:38:07;;;;;;;2.20;0.50;;;;;;;11.32;57.15;100222.03;5412885;26;20478;-64
2024/04/17 10:40:33;;;;;;;2.40;0.60;;;;;;;11.65;53.42;100226.28;5441225;26;20465;-64
2024/04/17 10:43:01;;;;;;;2.23;0.40;;;;;;;11.95;51.74;100233.50;5407569;26;20519;-64
2024/04/17 10:45:28;;;;;;;2.70;0.50;;;;;;;12.05;48.31;100232.41;5407646;26;20229;-64
2024/04/17 10:48:02;;;;;;;2.10;0.40;;;;;;;11.75;48.00;100234.91;5409577;26;21062;-64
2024/04/17 10:50:30;;;;;;;2.37;0.57;;;;;;;11.58;49.19;100229.44;5414327;26;20514;-64
2024/04/17 10:53:01;;;;;;;6.13;1.07;;;;;;;11.26;51.46;100230.66;5443127;26;20932;-64
2024/04/17 10:55:28;;;;;;;2.30;0.53;;;;;;;11.19;47.95;100231.09;5443242;26;20815;-64
2024/04/17 10:57:58;;;;;;;2.50;0.60;;;;;;;11.28;50.30;100234.63;5431840;26;20463;-64
2024/04/17 11:00:23;;;;;;;2.63;0.63;;;;;;;11.40;50.35;100223.19;5414435;26;20471;-64
2024/04/17 11:02:52;;;;;;;2.10;0.43;;;;;;;11.67;46.94;100232.16;5407499;26;20523;-64
2024/04/17 11:05:17;;;;;;;2.33;0.60;;;;;;;11.79;46.04;100229.63;5407318;26;20233;-64
2024/04/17 11:07:48;;;;;;;3.13;0.57;;;;;;;12.01;46.82;100226.81;5409879;26;20506;-64
2024/04/17 11:10:14;;;;;;;2.80;0.67;;;;;;;12.27;45.69;100220.56;5421857;26;20228;-64
2024/04/17 11:12:43;;;;;;;2.07;0.40;;;;;;;12.54;44.83;100225.66;5445350;26;20530;-64
2024/04/17 11:15:08;;;;;;;2.50;0.63;;;;;;;13.00;45.57;100218.63;5446370;26;20409;-65
2024/04/17 11:17:37;;;;;;;2.20;0.50;;;;;;;13.52;42.78;100223.03;5446262;26;20492;-64
2024/04/17 11:20:05;;;;;;;2.40;0.63;;;;;;;13.93;43.41;100216.81;5444353;26;20689;-64
2024/04/17 11:22:37;;;;;;;2.20;0.50;;;;;;;13.57;42.28;100220.91;5421881;26;20991;-64
2024/04/17 11:25:13;;;;;;;2.17;0.43;;;;;;;13.53;41.59;100219.97;5427444;26;20929;-64
2024/04/17 11:27:41;;;;;;;2.00;0.40;;;;;;;13.13;41.62;100214.88;5421178;26;20971;-64
2024/04/17 11:30:15;;;;;;;3.10;0.73;;;;;;;13.48;41.15;100216.66;5446063;26;20497;-64